Time;durP1;ratioP1;P1;durP2;ratioP2;P2;SDS_P1;SDS_P2;PMS_P1;PMS_P2;Temp;Humidity;BMP_temperature;BMP_pressure;BME280_temperature;BME280_humidity;BME280_pressure;Samples;Min_cycle;Max_cycle;Signal;HPM_P1;HPM_P2
2022/10/21 00:01:10;;;;;;;18.05;12.20;;;11.40;99.90;;;;;;5013088;28;20072;-81
2022/10/21 00:03:36;;;;;;;16.70;12.40;;;11.40;99.90;;;;;;4998749;28;20103;-82
2022/10/21 00:06:03;;;;;;;17.92;11.95;;;11.30;99.90;;;;;;5004884;28;20120;-81
2022/10/21 00:08:29;;;;;;;16.52;12.52;;;11.30;99.90;;;;;;4996697;28;20114;-81
2022/10/21 00:10:58;;;;;;;17.77;13.27;;;11.30;99.90;;;;;;4996160;28;20484;-81
2022/10/21 00:13:25;;;;;;;17.92;12.30;;;11.30;99.90;;;;;;5015417;28;20478;-81
2022/10/21 00:16:17;;;;;;;15.07;11.52;;;11.20;99.90;;;;;;5016505;28;20280;-81
2022/10/21 00:18:46;;;;;;;18.33;13.02;;;11.20;99.90;;;;;;4999890;28;20052;-81
2022/10/21 00:21:19;;;;;;;17.88;13.13;;;11.20;99.90;;;;;;5013532;28;20080;-81
2022/10/21 00:23:45;;;;;;;19.13;13.18;;;11.20;99.90;;;;;;4998234;28;20046;-82
2022/10/21 00:26:12;;;;;;;17.48;12.57;;;11.20;99.90;;;;;;5012761;28;20103;-81
2022/10/21 00:28:38;;;;;;;17.38;12.93;;;11.20;99.90;;;;;;5016954;28;20054;-81
2022/10/21 00:31:11;;;;;;;16.75;12.93;;;11.20;99.90;;;;;;4981037;28;20052;-81
2022/10/21 00:33:36;;;;;;;16.70;12.48;;;11.20;99.90;;;;;;4997295;28;20053;-82
2022/10/21 00:36:06;;;;;;;19.38;13.15;;;11.10;99.90;;;;;;4996199;28;20049;-82
2022/10/21 00:38:32;;;;;;;16.80;13.00;;;11.10;99.90;;;;;;4997331;28;20179;-82
2022/10/21 00:40:58;;;;;;;23.40;13.48;;;11.10;99.90;;;;;;5001657;28;20057;-82
2022/10/21 00:43:25;;;;;;;16.30;12.68;;;11.10;99.90;;;;;;5014324;28;20045;-82
2022/10/21 00:45:55;;;;;;;15.50;12.70;;;11.30;99.90;;;;;;5013035;28;20141;-81
2022/10/21 00:48:30;;;;;;;19.73;13.93;;;11.10;99.90;;;;;;4999921;28;20038;-82
2022/10/21 00:50:58;;;;;;;18.23;12.02;;;11.10;99.90;;;;;;5017246;28;20055;-81
2022/10/21 00:53:25;;;;;;;15.32;11.85;;;11.10;99.90;;;;;;5013361;28;20073;-81
2022/10/21 00:55:55;;;;;;;22.30;15.45;;;11.00;99.90;;;;;;5001359;28;20049;-81
2022/10/21 00:58:24;;;;;;;19.88;13.93;;;11.00;99.90;;;;;;5002808;28;20052;-82
2022/10/21 01:00:53;;;;;;;20.77;13.65;;;11.10;99.90;;;;;;5010258;28;20512;-82
2022/10/21 01:03:20;;;;;;;20.08;14.13;;;11.10;99.90;;;;;;5017657;28;20048;-82
2022/10/21 01:05:46;;;;;;;24.13;15.27;;;11.10;99.90;;;;;;4982110;28;20053;-82
2022/10/21 01:08:12;;;;;;;18.90;14.48;;;11.10;99.90;;;;;;5001304;28;20045;-82
2022/10/21 01:10:38;;;;;;;22.05;14.70;;;11.10;99.90;;;;;;4999563;28;20052;-82
2022/10/21 01:13:22;;;;;;;22.63;14.45;;;11.10;99.90;;;;;;4983524;28;20065;-82
2022/10/21 01:15:56;;;;;;;24.50;14.35;;;11.10;99.90;;;;;;4998203;28;20060;-81
2022/10/21 01:18:54;;;;;;;22.30;15.05;;;11.20;99.90;;;;;;5001119;28;21891;-82
2022/10/21 01:21:31;;;;;;;19.60;13.93;;;11.20;99.90;;;;;;5015079;28;20048;-81
2022/10/21 01:24:21;;;;;;;24.30;14.95;;;11.20;99.90;;;;;;5014418;28;20707;-82
2022/10/21 01:27:12;;;;;;;21.52;13.57;;;11.20;99.90;;;;;;5016476;28;20053;-81
2022/10/21 01:30:24;;;;;;;21.85;14.18;;;11.20;99.90;;;;;;4995782;28;20499;-82
2022/10/21 01:33:03;;;;;;;19.60;13.55;;;11.20;99.90;;;;;;4965146;28;20539;-81
2022/10/21 01:35:39;;;;;;;23.40;14.88;;;11.20;99.90;;;;;;5031821;28;20053;-82
2022/10/21 01:38:30;;;;;;;20.42;14.32;;;11.20;99.90;;;;;;5012428;28;20050;-81
2022/10/21 01:41:02;;;;;;;20.05;13.15;;;11.20;99.90;;;;;;5012447;28;20103;-81
2022/10/21 01:43:37;;;;;;;21.52;15.57;;;11.20;99.90;;;;;;4996819;28;20049;-81
2022/10/21 01:46:07;;;;;;;22.17;15.32;;;11.20;99.90;;;;;;5011130;28;20049;-81
2022/10/21 01:48:39;;;;;;;22.75;15.00;;;11.20;99.90;;;;;;5000835;28;20069;-82
2022/10/21 01:51:06;;;;;;;20.73;13.82;;;11.20;99.90;;;;;;4996475;28;20045;-81
2022/10/21 01:53:44;;;;;;;19.15;14.05;;;11.20;99.90;;;;;;4996312;28;20045;-81
2022/10/21 01:56:12;;;;;;;21.63;14.27;;;11.30;99.90;;;;;;5012068;28;20045;-82
2022/10/21 01:58:41;;;;;;;21.30;14.77;;;11.30;99.90;;;;;;4994822;28;20103;-81
2022/10/21 02:01:09;;;;;;;21.13;13.73;;;11.30;99.90;;;;;;5018444;28;20049;-82
2022/10/21 02:03:39;;;;;;;21.23;14.57;;;11.30;99.90;;;;;;4998187;28;20256;-81
2022/10/21 02:06:05;;;;;;;20.27;14.70;;;11.30;99.90;;;;;;5009728;28;20045;-81
2022/10/21 02:08:31;;;;;;;22.83;15.48;;;11.40;99.90;;;;;;4983382;28;20048;-81
2022/10/21 02:11:01;;;;;;;22.65;15.93;;;11.40;99.90;;;;;;5017579;28;20479;-81
2022/10/21 02:13:34;;;;;;;22.20;14.85;;;11.50;99.90;;;;;;5017392;28;20104;-82
2022/10/21 02:16:05;;;;;;;22.60;15.60;;;11.50;99.90;;;;;;5001016;28;20050;-81
2022/10/21 02:18:31;;;;;;;21.15;14.93;;;11.60;99.90;;;;;;4995940;28;20121;-81
2022/10/21 02:21:02;;;;;;;22.15;14.90;;;11.60;99.90;;;;;;4997116;28;20046;-81
2022/10/21 02:23:53;;;;;;;16.58;13.00;;;11.60;99.90;;;;;;5001143;28;20490;-82
2022/10/21 02:26:24;;;;;;;20.95;13.60;;;11.70;99.90;;;;;;4998441;28;20445;-81
2022/10/21 02:28:51;;;;;;;23.10;15.30;;;11.80;99.90;;;;;;5016177;28;20045;-81
2022/10/21 02:31:32;;;;;;;19.55;13.02;;;11.70;99.90;;;;;;5004447;28;20141;-81
2022/10/21 02:34:10;;;;;;;20.15;13.70;;;11.80;99.90;;;;;;5015302;28;20684;-81
2022/10/21 02:36:51;;;;;;;22.75;14.95;;;11.80;99.90;;;;;;5014223;28;20070;-81
2022/10/21 02:39:45;;;;;;;23.27;15.15;;;11.80;99.90;;;;;;5021753;28;20430;-81
2022/10/21 02:42:15;;;;;;;17.20;12.50;;;11.90;99.90;;;;;;5019951;28;20081;-81
2022/10/21 02:44:41;;;;;;;15.88;12.32;;;11.90;99.90;;;;;;5018263;28;20495;-82
2022/10/21 02:47:07;;;;;;;18.45;13.77;;;11.90;99.90;;;;;;4986906;28;20057;-82
2022/10/21 02:49:32;;;;;;;21.33;14.80;;;11.90;99.90;;;;;;4999450;28;20042;-81
2022/10/21 02:51:58;;;;;;;18.63;13.13;;;12.10;99.90;;;;;;5003248;28;20045;-82
2022/10/21 02:54:24;;;;;;;17.40;12.32;;;11.90;99.90;;;;;;5005483;28;20145;-81
2022/10/21 02:56:49;;;;;;;17.83;13.32;;;11.90;99.90;;;;;;4985015;28;20095;-82
2022/10/21 02:59:15;;;;;;;22.15;14.55;;;11.90;99.90;;;;;;5021777;28;20085;-80
2022/10/21 03:01:41;;;;;;;18.52;13.07;;;11.90;99.90;;;;;;4998953;28;20062;-81
2022/10/21 03:04:06;;;;;;;18.63;12.88;;;11.90;99.90;;;;;;5001725;28;20048;-81
2022/10/21 03:06:32;;;;;;;18.52;12.00;;;11.90;99.90;;;;;;5014766;28;20616;-81
2022/10/21 03:08:58;;;;;;;17.52;13.02;;;11.90;99.90;;;;;;5015895;28;20049;-81
2022/10/21 03:11:23;;;;;;;19.83;14.27;;;11.90;99.90;;;;;;4999957;28;20069;-81
2022/10/21 03:13:49;;;;;;;20.33;12.65;;;11.90;99.90;;;;;;5003581;28;20042;-81
2022/10/21 03:16:15;;;;;;;22.45;14.63;;;11.90;99.90;;;;;;5013830;28;20061;-81
2022/10/21 03:18:40;;;;;;;20.52;13.75;;;11.90;99.90;;;;;;5001332;28;20045;-81
2022/10/21 03:21:06;;;;;;;21.48;14.88;;;11.90;99.90;;;;;;5015067;28;20601;-81
2022/10/21 03:23:32;;;;;;;14.82;11.38;;;11.90;99.90;;;;;;5015671;28;20060;-81
2022/10/21 03:25:58;;;;;;;14.13;11.50;;;11.90;99.90;;;;;;5002278;28;20053;-81
2022/10/21 03:28:23;;;;;;;17.40;12.68;;;12.20;99.90;;;;;;4997579;28;20107;-81
2022/10/21 03:30:49;;;;;;;18.20;12.88;;;11.80;99.90;;;;;;5003564;28;20045;-81
2022/10/21 03:33:15;;;;;;;18.17;13.00;;;11.80;99.90;;;;;;4983243;28;20055;-81
2022/10/21 03:35:40;;;;;;;20.70;14.52;;;11.80;99.90;;;;;;5003000;28;20041;-81
2022/10/21 03:38:06;;;;;;;16.33;12.00;;;11.80;99.90;;;;;;5013773;28;20167;-81
2022/10/21 03:40:32;;;;;;;22.30;14.68;;;11.90;99.90;;;;;;5004906;28;20042;-81
2022/10/21 03:42:58;;;;;;;24.55;15.98;;;11.90;99.90;;;;;;5005040;28;20045;-81
2022/10/21 03:45:24;;;;;;;20.88;14.27;;;11.90;99.90;;;;;;5014075;28;20049;-81
2022/10/21 03:47:51;;;;;;;20.15;12.32;;;11.90;99.90;;;;;;4981101;28;20104;-81
2022/10/21 03:50:17;;;;;;;17.17;11.90;;;12.00;99.90;;;;;;5018875;28;20427;-81
2022/10/21 03:52:43;;;;;;;23.38;14.48;;;12.00;99.90;;;;;;5020779;28;20049;-81
2022/10/21 03:55:10;;;;;;;20.58;14.88;;;12.00;99.90;;;;;;5014042;28;20103;-82
2022/10/21 03:57:35;;;;;;;23.05;15.32;;;12.10;99.90;;;;;;4982734;28;20050;-81
2022/10/21 04:00:02;;;;;;;27.40;16.55;;;12.10;99.90;;;;;;4981032;28;20048;-81
2022/10/21 04:02:27;;;;;;;21.60;15.23;;;12.10;99.90;;;;;;5002901;28;20557;-81
2022/10/21 04:04:53;;;;;;;23.17;15.77;;;12.20;99.90;;;;;;5013042;28;20125;-82
2022/10/21 04:07:19;;;;;;;25.58;16.67;;;12.20;99.90;;;;;;4982737;28;20349;-81
2022/10/21 04:09:45;;;;;;;23.30;16.30;;;12.30;99.90;;;;;;5014697;28;20121;-81
2022/10/21 04:12:10;;;;;;;26.48;16.02;;;12.40;99.90;;;;;;5014830;28;20053;-81
2022/10/21 04:14:36;;;;;;;20.77;15.68;;;12.40;99.90;;;;;;4980982;28;20127;-81
2022/10/21 04:17:02;;;;;;;21.50;15.20;;;12.50;99.90;;;;;;4981633;28;20049;-82
2022/10/21 04:19:27;;;;;;;20.73;15.18;;;12.50;99.90;;;;;;4981787;28;20042;-81
2022/10/21 04:21:53;;;;;;;23.50;14.32;;;12.50;99.90;;;;;;5013775;28;20088;-82
2022/10/21 04:24:19;;;;;;;17.05;13.68;;;12.40;99.90;;;;;;5015275;28;20042;-81
2022/10/21 04:26:44;;;;;;;23.17;15.25;;;12.50;99.90;;;;;;4996733;28;20499;-81
2022/10/21 04:29:10;;;;;;;25.23;16.33;;;12.50;99.90;;;;;;5000938;28;20046;-81
2022/10/21 04:31:36;;;;;;;21.65;15.13;;;12.60;99.90;;;;;;4998411;28;20061;-81
2022/10/21 04:34:01;;;;;;;22.42;16.77;;;12.60;99.90;;;;;;4985778;28;20057;-82
2022/10/21 04:36:27;;;;;;;19.75;14.85;;;12.60;99.90;;;;;;5003802;28;20678;-81
2022/10/21 04:38:53;;;;;;;22.85;15.25;;;12.60;99.90;;;;;;4995729;28;20057;-82
2022/10/21 04:41:19;;;;;;;21.02;14.45;;;12.70;99.90;;;;;;4981882;28;20741;-81
2022/10/21 04:43:44;;;;;;;16.08;12.38;;;12.70;99.90;;;;;;5018485;28;20495;-81
2022/10/21 04:46:13;;;;;;;18.83;13.85;;;12.70;99.90;;;;;;5019633;28;20518;-81
2022/10/21 04:48:39;;;;;;;22.35;14.98;;;12.70;99.90;;;;;;5021269;28;20515;-81
2022/10/21 04:51:05;;;;;;;21.83;15.32;;;12.70;99.90;;;;;;5001925;28;20072;-82
2022/10/21 04:53:31;;;;;;;19.75;14.52;;;12.70;99.90;;;;;;4997165;28;20129;-81
2022/10/21 04:55:57;;;;;;;18.75;14.18;;;12.70;99.90;;;;;;5021412;28;20045;-81
2022/10/21 04:58:23;;;;;;;20.23;14.07;;;12.70;99.90;;;;;;4997111;28;20045;-81
2022/10/21 05:00:50;;;;;;;24.58;16.45;;;12.70;99.90;;;;;;5017761;28;20048;-81
2022/10/21 05:03:16;;;;;;;22.63;15.40;;;12.80;99.90;;;;;;5015324;28;20042;-81
2022/10/21 05:05:42;;;;;;;21.08;14.55;;;12.80;99.90;;;;;;5018754;28;20049;-81
2022/10/21 05:08:08;;;;;;;23.85;14.60;;;12.80;99.90;;;;;;5001540;28;20033;-81
2022/10/21 05:10:33;;;;;;;20.40;14.18;;;12.80;99.90;;;;;;4989196;28;20483;-81
2022/10/21 05:12:59;;;;;;;22.10;15.38;;;12.80;99.90;;;;;;5016261;28;20079;-81
2022/10/21 05:15:25;;;;;;;24.80;16.08;;;12.80;99.90;;;;;;5000494;28;20042;-81
2022/10/21 05:17:56;;;;;;;25.50;15.45;;;12.80;99.90;;;;;;4999978;28;20099;-86
2022/10/21 05:20:25;;;;;;;21.13;15.68;;;12.90;99.90;;;;;;4988424;28;20099;-84
2022/10/21 05:22:58;;;;;;;26.77;16.00;;;12.90;99.90;;;;;;5006661;28;20049;-84
2022/10/21 05:25:26;;;;;;;24.38;15.73;;;12.90;99.90;;;;;;5002753;28;20049;-84
2022/10/21 05:27:54;;;;;;;22.40;15.30;;;12.90;99.90;;;;;;5002551;28;20422;-84
2022/10/21 05:30:20;;;;;;;27.50;16.30;;;12.90;99.90;;;;;;5001961;28;20072;-83
2022/10/21 05:32:46;;;;;;;24.63;15.73;;;13.00;99.90;;;;;;5004509;28;20169;-82
2022/10/21 05:35:11;;;;;;;23.13;16.17;;;13.00;99.90;;;;;;4996256;28;20045;-81
2022/10/21 05:37:37;;;;;;;25.50;16.85;;;13.10;99.90;;;;;;4978846;28;20087;-81
2022/10/21 05:40:04;;;;;;;27.23;16.08;;;13.10;99.90;;;;;;5009747;28;20052;-82
2022/10/21 05:42:30;;;;;;;27.33;17.25;;;13.10;99.90;;;;;;5000038;28;20092;-81
2022/10/21 05:44:55;;;;;;;26.63;16.10;;;13.00;99.90;;;;;;5017429;28;20085;-82
2022/10/21 05:47:22;;;;;;;25.83;16.83;;;13.00;99.90;;;;;;5000198;28;20050;-81
2022/10/21 05:49:49;;;;;;;25.40;17.08;;;13.00;99.90;;;;;;5022308;28;20137;-80
2022/10/21 05:56:09;;;;;;;25.95;16.08;;;11.80;99.90;;;;;;5005322;28;20050;-80
2022/10/21 05:58:35;;;;;;;23.90;15.10;;;13.00;99.90;;;;;;4999586;28;20076;-81
2022/10/21 06:01:02;;;;;;;26.63;16.98;;;13.00;99.90;;;;;;5001830;28;20049;-80
2022/10/21 06:03:30;;;;;;;22.80;15.20;;;13.00;99.90;;;;;;5000188;28;20046;-81
2022/10/21 06:05:57;;;;;;;22.88;15.75;;;13.00;99.90;;;;;;4999806;28;20049;-83
2022/10/21 06:08:23;;;;;;;27.23;16.92;;;13.00;99.90;;;;;;4980101;28;20042;-83
2022/10/21 06:10:49;;;;;;;25.63;16.70;;;12.90;99.90;;;;;;4977465;28;20054;-82
2022/10/21 06:13:15;;;;;;;25.23;16.63;;;13.00;99.90;;;;;;5010659;28;20050;-83
2022/10/21 06:15:40;;;;;;;23.42;16.25;;;13.00;99.90;;;;;;5000083;28;20629;-82
2022/10/21 06:18:06;;;;;;;26.75;16.90;;;13.00;99.90;;;;;;4981944;28;20045;-83
2022/10/21 06:20:32;;;;;;;25.58;16.27;;;13.00;99.90;;;;;;4994818;28;20790;-82
2022/10/21 06:22:59;;;;;;;25.67;16.27;;;13.00;99.90;;;;;;4980882;28;20056;-82
2022/10/21 06:25:25;;;;;;;26.90;17.25;;;13.00;99.90;;;;;;5001213;28;20049;-82
2022/10/21 06:27:56;;;;;;;27.15;17.10;;;13.00;99.90;;;;;;5011512;28;20821;-88
2022/10/21 06:30:22;;;;;;;27.35;18.25;;;13.00;99.90;;;;;;4998341;28;20056;-82
2022/10/21 06:32:48;;;;;;;27.13;17.00;;;13.00;99.90;;;;;;4996300;28;20057;-81
2022/10/21 06:35:13;;;;;;;28.30;17.23;;;13.00;99.90;;;;;;4987473;28;20049;-82
2022/10/21 06:37:39;;;;;;;27.15;16.85;;;13.00;99.90;;;;;;4990371;28;20060;-81
2022/10/21 06:40:05;;;;;;;27.13;16.73;;;13.00;99.90;;;;;;4989805;28;20495;-81
2022/10/21 06:42:31;;;;;;;27.73;17.05;;;12.90;99.90;;;;;;4996849;28;20400;-81
2022/10/21 06:44:57;;;;;;;27.50;17.25;;;12.90;99.90;;;;;;4990252;28;20045;-81
2022/10/21 06:47:25;;;;;;;25.90;17.30;;;12.90;99.90;;;;;;4990989;28;20053;-82
2022/10/21 06:49:51;;;;;;;27.00;16.23;;;12.80;99.90;;;;;;4996579;28;20042;-83
2022/10/21 06:52:16;;;;;;;26.20;16.73;;;12.80;99.90;;;;;;4992140;28;20502;-84
2022/10/21 06:54:42;;;;;;;25.58;15.93;;;12.80;99.90;;;;;;4992187;28;20076;-84
2022/10/21 06:57:08;;;;;;;22.77;16.10;;;12.80;99.90;;;;;;4989457;28;20069;-82
2022/10/21 06:59:33;;;;;;;24.08;15.85;;;12.70;99.90;;;;;;4973283;28;20045;-82
2022/10/21 07:01:59;;;;;;;20.27;14.52;;;12.70;99.90;;;;;;5028933;28;20064;-84
2022/10/21 07:04:25;;;;;;;26.05;15.93;;;12.70;99.90;;;;;;4989778;28;20045;-82
2022/10/21 07:06:51;;;;;;;22.90;15.63;;;12.70;99.90;;;;;;4979200;28;20057;-83
2022/10/21 07:09:17;;;;;;;30.10;15.93;;;12.70;99.90;;;;;;5008866;28;20123;-83
2022/10/21 07:11:43;;;;;;;22.10;14.43;;;12.70;99.90;;;;;;5007781;28;20161;-81
2022/10/21 07:14:16;;;;;;;26.08;14.63;;;12.70;99.90;;;;;;4982842;28;20364;-85
2022/10/21 07:16:42;;;;;;;25.88;16.33;;;12.70;99.90;;;;;;5017248;28;20057;-83
2022/10/21 07:19:09;;;;;;;24.77;16.52;;;12.70;99.90;;;;;;5001527;28;20049;-81
2022/10/21 07:21:35;;;;;;;23.02;15.60;;;12.80;99.90;;;;;;4998831;28;20046;-82
2022/10/21 07:24:03;;;;;;;21.27;15.18;;;12.80;99.90;;;;;;4994954;28;20080;-82
2022/10/21 07:26:31;;;;;;;25.13;16.00;;;12.80;99.90;;;;;;5000936;28;20056;-84
2022/10/21 07:29:06;;;;;;;25.35;15.57;;;12.90;99.90;;;;;;4998140;28;20067;-83
2022/10/21 07:31:43;;;;;;;22.65;15.02;;;12.40;99.90;;;;;;4996404;28;20551;-82
2022/10/21 07:34:10;;;;;;;23.13;14.95;;;12.10;99.90;;;;;;5009566;28;20131;-82
2022/10/21 07:36:39;;;;;;;22.40;14.95;;;12.90;99.90;;;;;;4994425;28;20985;-82
2022/10/21 07:39:09;;;;;;;25.60;15.40;;;13.00;99.90;;;;;;5002683;28;20053;-82
2022/10/21 07:41:38;;;;;;;22.13;15.27;;;13.00;99.90;;;;;;5000014;28;20060;-84
2022/10/21 07:44:08;;;;;;;24.73;15.50;;;13.00;99.90;;;;;;4997625;28;20049;-84
2022/10/21 07:46:35;;;;;;;23.27;15.25;;;13.00;99.90;;;;;;4993641;28;20088;-82
2022/10/21 07:49:01;;;;;;;22.73;14.82;;;13.10;99.90;;;;;;4993645;28;20037;-83
2022/10/21 07:51:27;;;;;;;21.77;15.50;;;13.20;99.90;;;;;;5015698;28;20042;-82
2022/10/21 07:53:55;;;;;;;25.30;15.65;;;13.20;99.90;;;;;;4999759;28;20053;-82
2022/10/21 07:56:23;;;;;;;24.27;15.15;;;13.20;99.90;;;;;;4996722;28;20057;-82
2022/10/21 07:58:50;;;;;;;27.52;15.63;;;13.30;99.90;;;;;;5014261;28;20060;-82
2022/10/21 08:01:17;;;;;;;21.02;14.60;;;13.40;99.90;;;;;;4977210;28;20068;-81
2022/10/21 08:03:44;;;;;;;26.38;15.73;;;13.40;99.90;;;;;;5014760;28;20057;-82
2022/10/21 08:06:11;;;;;;;26.92;16.60;;;13.50;99.90;;;;;;5011760;28;20558;-81
2022/10/21 08:08:38;;;;;;;21.02;14.43;;;13.60;99.90;;;;;;5015076;28;20144;-81
2022/10/21 08:11:04;;;;;;;25.58;16.30;;;13.60;99.90;;;;;;4976705;28;20498;-82
2022/10/21 08:13:30;;;;;;;27.02;16.30;;;13.70;99.90;;;;;;4997259;28;20530;-83
2022/10/21 08:15:57;;;;;;;25.75;14.85;;;13.80;99.90;;;;;;5013060;28;20053;-82
2022/10/21 08:18:24;;;;;;;23.13;15.57;;;13.80;99.90;;;;;;5016277;28;20046;-82
2022/10/21 08:20:51;;;;;;;24.02;15.80;;;13.90;99.90;;;;;;4990499;28;20132;-82
2022/10/21 08:23:19;;;;;;;22.40;15.13;;;13.90;99.90;;;;;;5014606;28;20395;-82
2022/10/21 08:25:49;;;;;;;18.67;14.10;;;14.00;99.90;;;;;;5011070;28;20053;-83
2022/10/21 08:28:16;;;;;;;20.48;13.82;;;14.00;99.90;;;;;;5014202;28;20238;-82
2022/10/21 08:30:43;;;;;;;18.40;13.68;;;14.00;99.90;;;;;;5012892;28;20049;-85
2022/10/21 08:33:10;;;;;;;19.98;14.07;;;14.00;99.90;;;;;;4997962;28;20049;-81
2022/10/21 08:35:37;;;;;;;18.92;12.80;;;14.10;99.90;;;;;;4978734;28;20065;-82
2022/10/21 08:38:03;;;;;;;19.98;13.82;;;14.10;99.90;;;;;;5008784;28;20769;-82
2022/10/21 08:40:35;;;;;;;20.92;14.55;;;14.10;99.90;;;;;;5013396;28;20106;-83
2022/10/21 08:43:13;;;;;;;20.58;13.43;;;14.20;99.90;;;;;;5001362;28;20124;-82
2022/10/21 08:45:48;;;;;;;18.80;13.60;;;14.20;99.90;;;;;;5004495;28;20124;-82
2022/10/21 08:48:17;;;;;;;18.17;12.68;;;14.30;99.90;;;;;;5024801;28;20103;-82
2022/10/21 08:50:49;;;;;;;19.30;12.88;;;14.30;99.90;;;;;;5023666;28;20518;-82
2022/10/21 08:53:22;;;;;;;21.23;13.13;;;13.50;99.90;;;;;;5023689;28;20061;-82
2022/10/21 08:55:50;;;;;;;19.05;13.25;;;14.40;99.90;;;;;;5024254;28;20060;-82
2022/10/21 08:58:19;;;;;;;15.45;12.13;;;14.40;99.90;;;;;;5001759;28;20262;-82
2022/10/21 09:01:16;;;;;;;21.92;12.25;;;14.50;99.90;;;;;;5015285;28;20049;-82
2022/10/21 09:03:45;;;;;;;19.40;11.75;;;14.50;99.90;;;;;;5019970;28;20056;-82
2022/10/21 09:06:23;;;;;;;17.00;12.55;;;14.50;99.90;;;;;;4998648;28;20084;-82
2022/10/21 09:09:00;;;;;;;16.95;11.55;;;14.50;99.90;;;;;;5000934;28;20176;-82
2022/10/21 09:11:34;;;;;;;18.30;12.77;;;14.60;99.90;;;;;;5038955;28;20107;-82
2022/10/21 09:14:28;;;;;;;16.95;11.73;;;14.60;99.90;;;;;;5016779;28;20053;-82
2022/10/21 09:17:01;;;;;;;17.20;11.65;;;14.60;99.90;;;;;;5007505;28;20056;-82
2022/10/21 09:19:57;;;;;;;18.23;11.45;;;14.60;99.90;;;;;;5021931;28;20060;-82
2022/10/21 09:23:00;;;;;;;15.88;11.55;;;14.70;99.90;;;;;;5021607;28;20220;-82
2022/10/21 09:26:08;;;;;;;14.63;11.15;;;14.70;99.90;;;;;;5005224;28;20046;-83
2022/10/21 09:28:35;;;;;;;14.98;10.57;;;14.70;99.90;;;;;;5011372;28;20096;-83
2022/10/21 09:31:09;;;;;;;15.25;10.98;;;14.70;99.90;;;;;;5022095;28;20054;-82
2022/10/21 09:33:35;;;;;;;16.83;11.00;;;14.70;99.90;;;;;;5020582;28;20148;-83
2022/10/21 09:36:10;;;;;;;17.95;11.13;;;14.70;99.90;;;;;;5003370;28;20128;-82
2022/10/21 09:38:44;;;;;;;14.35;10.57;;;14.70;99.90;;;;;;5000912;28;20053;-82
2022/10/21 09:41:16;;;;;;;13.27;10.70;;;14.70;99.90;;;;;;5005579;28;20044;-82
2022/10/21 09:43:43;;;;;;;15.93;10.63;;;14.80;99.90;;;;;;5003175;28;20143;-79
2022/10/21 09:46:12;;;;;;;14.52;10.57;;;14.80;99.90;;;;;;5000146;28;20048;-82
2022/10/21 09:48:51;;;;;;;13.38;10.43;;;14.80;99.90;;;;;;5001246;28;20042;-83
2022/10/21 09:51:27;;;;;;;15.82;10.60;;;14.80;99.90;;;;;;5016904;28;20049;-82
2022/10/21 09:54:22;;;;;;;16.85;10.30;;;14.80;99.90;;;;;;5017437;28;20156;-81
2022/10/21 09:56:57;;;;;;;12.18;9.48;;;14.80;99.90;;;;;;5018749;28;20092;-82
2022/10/21 09:59:24;;;;;;;14.25;10.63;;;14.90;99.90;;;;;;5016188;28;20064;-83
2022/10/21 10:01:50;;;;;;;14.10;9.02;;;14.90;99.90;;;;;;5018133;28;20643;-83
2022/10/21 10:04:31;;;;;;;13.52;9.23;;;14.90;99.90;;;;;;4996015;28;20496;-82
2022/10/21 10:07:17;;;;;;;12.10;8.68;;;14.90;99.90;;;;;;5013943;28;20041;-84
2022/10/21 10:09:47;;;;;;;14.68;8.77;;;15.00;99.90;;;;;;5016109;28;20050;-85
2022/10/21 10:12:19;;;;;;;13.77;9.77;;;15.00;99.90;;;;;;5005711;28;20046;-83
2022/10/21 10:14:46;;;;;;;12.13;8.35;;;15.00;99.90;;;;;;5011587;28;20057;-84
2022/10/21 10:17:30;;;;;;;12.00;8.52;;;15.10;99.90;;;;;;4996768;28;20045;-84
2022/10/21 10:20:04;;;;;;;13.50;8.95;;;15.10;99.90;;;;;;4995227;28;20064;-85
2022/10/21 10:22:36;;;;;;;11.60;8.10;;;15.10;99.90;;;;;;4993919;28;20136;-83
2022/10/21 10:25:11;;;;;;;12.32;8.10;;;15.10;99.90;;;;;;5001166;28;20042;-83
2022/10/21 10:27:50;;;;;;;11.95;8.13;;;15.10;99.90;;;;;;4995218;28;22168;-85
2022/10/21 10:30:18;;;;;;;13.38;8.32;;;15.10;99.90;;;;;;5018931;28;20050;-84
2022/10/21 10:32:45;;;;;;;11.15;7.68;;;15.20;99.90;;;;;;5011697;28;20041;-84
2022/10/21 10:35:29;;;;;;;11.70;7.95;;;15.20;99.90;;;;;;5013215;28;20053;-86
2022/10/21 10:37:57;;;;;;;10.13;7.20;;;15.30;99.90;;;;;;4991443;28;20053;-84
2022/10/21 10:40:40;;;;;;;11.77;7.30;;;15.30;99.90;;;;;;5010347;28;20089;-85
2022/10/21 10:43:19;;;;;;;10.43;7.53;;;15.30;99.90;;;;;;4997979;28;20892;-84
2022/10/21 10:46:00;;;;;;;11.52;7.18;;;15.40;99.90;;;;;;5003555;28;20073;-83
2022/10/21 10:48:49;;;;;;;13.00;7.35;;;15.40;99.90;;;;;;5002292;28;20115;-84
2022/10/21 10:51:34;;;;;;;10.13;7.13;;;15.40;99.90;;;;;;4998572;28;20126;-83
2022/10/21 10:54:06;;;;;;;10.03;7.23;;;15.40;99.90;;;;;;5002788;28;20057;-84
2022/10/21 10:56:47;;;;;;;15.00;7.22;;;15.50;99.90;;;;;;5005170;28;20175;-84
2022/10/21 10:59:22;;;;;;;11.20;7.45;;;15.50;99.90;;;;;;5017882;28;20143;-82
2022/10/21 11:02:11;;;;;;;10.77;7.37;;;15.50;99.90;;;;;;5007813;28;20057;-84
2022/10/21 11:04:53;;;;;;;9.50;6.65;;;15.60;99.90;;;;;;4994753;28;20124;-83
2022/10/21 11:07:52;;;;;;;9.55;7.57;;;15.60;99.90;;;;;;5017756;28;20108;-82
2022/10/21 11:10:45;;;;;;;11.50;6.50;;;15.70;99.90;;;;;;5003363;28;20048;-84
2022/10/21 11:13:16;;;;;;;11.13;7.50;;;15.70;99.90;;;;;;5035445;28;20052;-84
2022/10/21 11:15:45;;;;;;;10.60;7.88;;;15.80;99.90;;;;;;5004415;28;20096;-84
2022/10/21 11:18:21;;;;;;;10.48;7.55;;;15.80;99.90;;;;;;5025292;28;20045;-84
2022/10/21 11:21:25;;;;;;;11.38;7.28;;;15.80;99.90;;;;;;5019537;28;20053;-85
2022/10/21 11:24:12;;;;;;;10.75;6.68;;;15.80;99.90;;;;;;5000982;28;20060;-84
2022/10/21 11:26:53;;;;;;;12.45;7.47;;;15.90;99.90;;;;;;5024373;28;20092;-83
2022/10/21 11:29:21;;;;;;;11.93;7.10;;;15.90;99.90;;;;;;5035708;28;20078;-85
2022/10/21 11:32:13;;;;;;;8.85;7.10;;;16.00;99.90;;;;;;5022524;28;20160;-85
2022/10/21 11:34:52;;;;;;;9.88;6.55;;;16.00;99.90;;;;;;5012906;28;20045;-85
2022/10/21 11:37:43;;;;;;;10.43;6.70;;;16.10;99.90;;;;;;5000043;28;20050;-85
2022/10/21 11:40:29;;;;;;;11.07;6.25;;;16.10;99.90;;;;;;5015920;28;20050;-84
2022/10/21 11:42:56;;;;;;;;;;;16.10;99.90;;;;;;5038327;28;20042;-84
2022/10/21 11:45:25;;;;;;;8.27;6.18;;;16.10;99.90;;;;;;5017581;28;20405;-83
2022/10/21 11:48:07;;;;;;;11.40;5.97;;;16.20;99.90;;;;;;4994401;28;20052;-84
2022/10/21 11:51:08;;;;;;;11.40;5.72;;;16.30;99.90;;;;;;5001218;28;20038;-83
2022/10/21 11:54:07;;;;;;;8.80;6.30;;;16.30;99.90;;;;;;4979399;28;20782;-83
2022/10/21 11:56:43;;;;;;;8.20;5.93;;;16.40;99.90;;;;;;5019614;28;20053;-84
2022/10/21 11:59:22;;;;;;;8.38;6.25;;;16.50;99.90;;;;;;5019689;28;20045;-84
2022/10/21 12:02:30;;;;;;;9.05;6.35;;;16.60;99.90;;;;;;4995323;28;20124;-84
2022/10/21 12:05:36;;;;;;;9.98;6.65;;;16.60;99.90;;;;;;5012848;28;20053;-84
2022/10/21 12:08:43;;;;;;;8.30;6.10;;;16.70;99.90;;;;;;4982857;28;20057;-84
2022/10/21 12:11:14;;;;;;;7.70;5.80;;;16.90;99.90;;;;;;4980702;28;20064;-84
2022/10/21 12:13:51;;;;;;;9.25;6.00;;;17.00;99.90;;;;;;4996864;28;20053;-84
2022/10/21 12:16:21;;;;;;;7.53;5.70;;;17.20;99.90;;;;;;5013982;28;20135;-84
2022/10/21 12:18:52;;;;;;;9.57;5.88;;;17.50;99.90;;;;;;5017631;28;20057;-83
2022/10/21 12:21:23;;;;;;;9.77;5.75;;;17.70;99.90;;;;;;5018522;28;20133;-84
2022/10/21 12:24:03;;;;;;;8.60;5.57;;;18.50;99.90;;;;;;5014033;28;20053;-82
2022/10/21 12:26:41;;;;;;;8.65;5.38;;;19.20;99.90;;;;;;4997200;28;20060;-83
2022/10/21 12:29:24;;;;;;;9.55;6.13;;;19.90;99.90;;;;;;4995473;28;20038;-82
2022/10/21 12:32:02;;;;;;;7.57;5.35;;;20.50;99.90;;;;;;5014878;28;20049;-83
2022/10/21 12:34:28;;;;;;;6.40;5.25;;;20.90;99.90;;;;;;5014954;28;20042;-89
2022/10/21 12:36:54;;;;;;;7.93;4.97;;;21.20;99.90;;;;;;4998069;28;20038;-83
2022/10/21 12:39:35;;;;;;;7.57;4.75;;;21.60;99.90;;;;;;5012210;28;20442;-83
2022/10/21 12:42:14;;;;;;;7.05;5.03;;;21.80;99.90;;;;;;5000049;28;20562;-81
2022/10/21 12:44:49;;;;;;;11.00;5.10;;;22.30;99.90;;;;;;5019168;28;20132;-81
2022/10/21 12:47:31;;;;;;;6.40;5.23;;;22.50;99.90;;;;;;5017319;28;20041;-82
2022/10/21 12:50:03;;;;;;;7.82;5.05;;;22.50;99.90;;;;;;4998838;28;20041;-82
2022/10/21 12:52:29;;;;;;;9.00;4.82;;;22.40;99.90;;;;;;5029905;28;20048;-83
2022/10/21 12:54:58;;;;;;;8.57;4.50;;;22.40;99.90;;;;;;5000133;28;20046;-82
2022/10/21 12:57:29;;;;;;;10.77;4.82;;;22.40;99.90;;;;;;5014976;28;20083;-81